Time;durP1;ratioP1;P1;durP2;ratioP2;P2;SDS_P1;SDS_P2;PMS_P1;PMS_P2;Temp;Humidity;BMP_temperature;BMP_pressure;BME280_temperature;BME280_humidity;BME280_pressure;Samples;Min_cycle;Max_cycle;Signal;HPM_P1;HPM_P2
2023/10/16 00:01:06;;;;;;;10.70;7.05;;;;;;;;;;5083192;28;20032;-65
2023/10/16 00:03:32;;;;;;;14.02;7.88;;;;;;;;;;5072846;28;20457;-64
2023/10/16 00:05:57;;;;;;;11.35;7.20;;;;;;;;;;5069123;28;20024;-65
2023/10/16 00:08:23;;;;;;;13.00;7.25;;;;;;;;;;5091324;28;20032;-65
2023/10/16 00:10:58;;;;;;;10.77;7.50;;;;;;;;;;5090642;28;20391;-65
2023/10/16 00:13:26;;;;;;;9.95;7.22;;;;;;;;;;5073297;28;20036;-65
2023/10/16 00:15:54;;;;;;;12.82;7.57;;;;;;;;;;5089211;28;20504;-66
2023/10/16 00:18:23;;;;;;;11.50;7.20;;;;;;;;;;5078740;28;20040;-65
2023/10/16 00:20:49;;;;;;;12.90;7.78;;;;;;;;;;5048633;28;20122;-66
2023/10/16 00:23:14;;;;;;;11.13;6.88;;;;;;;;;;5047276;28;20031;-67
2023/10/16 00:25:40;;;;;;;13.60;7.80;;;;;;;;;;5043363;28;20045;-66
2023/10/16 00:28:09;;;;;;;8.98;6.80;;;;;;;;;;5049105;28;20842;-67
2023/10/16 00:30:35;;;;;;;11.13;7.75;;;;;;;;;;5044999;28;21218;-66
2023/10/16 00:33:00;;;;;;;13.05;8.10;;;;;;;;;;5047280;28;20028;-65
2023/10/16 00:35:26;;;;;;;11.82;7.55;;;;;;;;;;5048268;28;20028;-65
2023/10/16 00:37:51;;;;;;;11.77;7.43;;;;;;;;;;5033872;28;20028;-65
2023/10/16 00:40:31;;;;;;;12.32;8.15;;;;;;;;;;5046745;28;20020;-65
2023/10/16 00:42:56;;;;;;;11.73;7.90;;;;;;;;;;5047067;28;20016;-66
2023/10/16 00:45:22;;;;;;;11.68;8.13;;;;;;;;;;5034429;28;20032;-66
2023/10/16 00:47:47;;;;;;;13.43;8.27;;;;;;;;;;5046920;28;20126;-66
2023/10/16 00:50:14;;;;;;;10.68;7.53;;;;;;;;;;5047674;28;20471;-66
2023/10/16 00:52:42;;;;;;;11.15;7.63;;;;;;;;;;5040112;28;20776;-66
2023/10/16 00:55:11;;;;;;;11.95;7.82;;;;;;;;;;5054984;28;20039;-66
2023/10/16 00:57:36;;;;;;;11.38;8.48;;;;;;;;;;5090581;28;20016;-66
2023/10/16 01:00:12;;;;;;;10.43;7.82;;;;;;;;;;5090694;28;20028;-66
2023/10/16 01:02:40;;;;;;;13.30;8.07;;;;;;;;;;5084298;28;20386;-66
2023/10/16 01:05:07;;;;;;;12.43;7.47;;;;;;;;;;5090610;28;20390;-66
2023/10/16 01:07:33;;;;;;;10.13;7.50;;;;;;;;;;5090785;28;20028;-66
2023/10/16 01:09:59;;;;;;;11.70;8.38;;;;;;;;;;5092674;28;20028;-66
2023/10/16 01:12:25;;;;;;;13.63;8.82;;;;;;;;;;5093246;28;20063;-66
2023/10/16 01:14:50;;;;;;;11.55;7.38;;;;;;;;;;5094114;28;20048;-66
2023/10/16 01:17:15;;;;;;;15.30;7.72;;;;;;;;;;5092655;28;20801;-66
2023/10/16 01:19:43;;;;;;;11.68;7.53;;;;;;;;;;5094194;28;20016;-66
2023/10/16 01:22:13;;;;;;;12.48;7.38;;;;;;;;;;5093495;28;20475;-67
2023/10/16 01:24:43;;;;;;;9.48;7.55;;;;;;;;;;5093837;28;20390;-65
2023/10/16 01:27:14;;;;;;;12.57;7.78;;;;;;;;;;5047503;28;20025;-66
2023/10/16 01:29:39;;;;;;;13.07;8.15;;;;;;;;;;5050490;28;20032;-66
2023/10/16 01:32:05;;;;;;;13.35;8.05;;;;;;;;;;5050194;28;20058;-66
2023/10/16 01:34:32;;;;;;;10.63;7.47;;;;;;;;;;5046238;28;20852;-66
2023/10/16 01:37:03;;;;;;;12.65;8.13;;;;;;;;;;5090501;28;20052;-66
2023/10/16 01:42:12;;;;;;;11.68;8.05;;;;;;;;;;5041807;28;20098;-66
2023/10/16 01:44:39;;;;;;;12.93;7.45;;;;;;;;;;5071518;28;20020;-66
2023/10/16 01:47:08;;;;;;;15.18;8.48;;;;;;;;;;5074372;28;20135;-66
2023/10/16 01:49:34;;;;;;;12.25;7.90;;;;;;;;;;5090536;28;20498;-66
2023/10/16 01:51:59;;;;;;;12.88;8.10;;;;;;;;;;5093148;28;20056;-67
2023/10/16 01:54:24;;;;;;;14.57;8.63;;;;;;;;;;5089912;28;20025;-66
2023/10/16 01:56:50;;;;;;;11.53;8.27;;;;;;;;;;5092127;28;20024;-66
2023/10/16 01:59:15;;;;;;;12.27;8.23;;;;;;;;;;5092935;28;20266;-66
2023/10/16 02:01:41;;;;;;;14.60;7.40;;;;;;;;;;5054231;28;20020;-66
2023/10/16 02:04:06;;;;;;;16.70;8.18;;;;;;;;;;5050226;28;20027;-67
2023/10/16 02:06:32;;;;;;;12.50;8.00;;;;;;;;;;5049739;28;20013;-66
2023/10/16 02:08:59;;;;;;;16.95;8.35;;;;;;;;;;5042384;28;20091;-66
2023/10/16 02:11:25;;;;;;;21.45;8.55;;;;;;;;;;5049029;28;20063;-67
2023/10/16 02:13:50;;;;;;;23.67;9.20;;;;;;;;;;5033322;28;20020;-66
2023/10/16 02:16:18;;;;;;;17.50;9.90;;;;;;;;;;5090000;28;20493;-66
2023/10/16 02:18:45;;;;;;;16.77;9.35;;;;;;;;;;5092304;28;20034;-66
2023/10/16 02:21:14;;;;;;;21.65;9.82;;;;;;;;;;5083239;28;20066;-66
2023/10/16 02:23:46;;;;;;;16.63;9.73;;;;;;;;;;5043998;28;20809;-67
2023/10/16 02:26:11;;;;;;;17.17;9.73;;;;;;;;;;5031012;28;20020;-66
2023/10/16 02:28:40;;;;;;;17.40;10.23;;;;;;;;;;5046847;28;20905;-65
2023/10/16 02:31:17;;;;;;;15.60;8.65;;;;;;;;;;5062458;28;20028;-65
2023/10/16 02:33:47;;;;;;;20.70;10.13;;;;;;;;;;5092836;28;20020;-64
2023/10/16 02:36:13;;;;;;;12.52;9.23;;;;;;;;;;5079351;28;20028;-64
2023/10/16 02:38:41;;;;;;;16.58;8.85;;;;;;;;;;5092319;28;20016;-64
2023/10/16 02:41:08;;;;;;;14.43;9.00;;;;;;;;;;5092221;28;20024;-65
2023/10/16 02:43:37;;;;;;;13.27;8.88;;;;;;;;;;5092657;28;20016;-65
2023/10/16 02:46:08;;;;;;;18.60;9.75;;;;;;;;;;5083645;28;20438;-65
2023/10/16 02:48:35;;;;;;;13.82;9.23;;;;;;;;;;5090368;28;20075;-65
2023/10/16 02:51:02;;;;;;;14.32;7.78;;;;;;;;;;5092529;28;20035;-67
2023/10/16 02:53:28;;;;;;;14.55;8.23;;;;;;;;;;5068587;28;20493;-68
2023/10/16 02:55:58;;;;;;;20.55;9.07;;;;;;;;;;5046441;28;20924;-67
2023/10/16 02:58:26;;;;;;;26.13;10.10;;;;;;;;;;5065316;28;20098;-67
2023/10/16 03:00:53;;;;;;;18.20;9.45;;;;;;;;;;5092268;28;20028;-67
2023/10/16 03:03:19;;;;;;;11.70;8.02;;;;;;;;;;5086723;28;20057;-66
2023/10/16 03:05:45;;;;;;;15.88;9.52;;;;;;;;;;5092023;28;20093;-65
2023/10/16 03:08:10;;;;;;;12.95;9.57;;;;;;;;;;5092101;28;20020;-66
2023/10/16 03:10:36;;;;;;;14.35;9.82;;;;;;;;;;5092225;28;20466;-66
2023/10/16 03:13:05;;;;;;;12.50;9.40;;;;;;;;;;5091449;28;20579;-65
2023/10/16 03:15:38;;;;;;;12.95;8.68;;;;;;;;;;5091977;28;20039;-65
2023/10/16 03:18:04;;;;;;;19.90;9.63;;;;;;;;;;5080159;28;20308;-65
2023/10/16 03:20:35;;;;;;;17.52;9.45;;;;;;;;;;5038127;28;20080;-65
2023/10/16 03:23:06;;;;;;;16.92;9.20;;;;;;;;;;5037269;28;20077;-65
2023/10/16 03:25:50;;;;;;;18.15;10.70;;;;;;;;;;5046218;28;20880;-64
2023/10/16 03:28:17;;;;;;;13.20;9.10;;;;;;;;;;5043461;28;20186;-65
2023/10/16 03:30:43;;;;;;;11.48;8.43;;;;;;;;;;5037065;28;20025;-64
2023/10/16 03:33:14;;;;;;;15.63;9.00;;;;;;;;;;5041050;28;20128;-64
2023/10/16 03:35:41;;;;;;;11.93;9.07;;;;;;;;;;5043821;28;20012;-64
2023/10/16 03:38:11;;;;;;;13.45;8.73;;;;;;;;;;5062914;28;20040;-65
2023/10/16 03:40:36;;;;;;;11.52;8.93;;;;;;;;;;5089087;28;20020;-64
2023/10/16 03:43:01;;;;;;;18.50;10.63;;;;;;;;;;5084774;28;20042;-65
2023/10/16 03:45:27;;;;;;;17.83;9.65;;;;;;;;;;5088131;28;20425;-64
2023/10/16 03:47:58;;;;;;;13.07;8.90;;;;;;;;;;5087640;28;20028;-65
2023/10/16 03:50:34;;;;;;;16.13;10.10;;;;;;;;;;5091306;28;20114;-65
2023/10/16 03:53:00;;;;;;;18.10;9.13;;;;;;;;;;5091578;28;20028;-66
2023/10/16 03:55:25;;;;;;;16.92;9.30;;;;;;;;;;5091781;28;20016;-66
2023/10/16 03:57:56;;;;;;;14.10;8.98;;;;;;;;;;5091486;28;20048;-66
2023/10/16 04:00:50;;;;;;;16.48;10.13;;;;;;;;;;5090715;28;20018;-65
2023/10/16 04:03:15;;;;;;;17.43;10.40;;;;;;;;;;5089299;28;20526;-65
2023/10/16 04:05:46;;;;;;;18.10;9.98;;;;;;;;;;5080346;28;20023;-65
2023/10/16 04:08:15;;;;;;;13.55;10.10;;;;;;;;;;5090319;28;20028;-64
2023/10/16 04:10:47;;;;;;;17.73;10.60;;;;;;;;;;5083559;28;20116;-64
2023/10/16 04:13:16;;;;;;;16.75;9.88;;;;;;;;;;5091122;28;20020;-64
2023/10/16 04:21:37;;;;;;;14.20;9.32;;;;;;;;;;5090934;28;20044;-64
2023/10/16 04:31:57;;;;;;;15.35;10.55;;;;;;;;;;5074781;28;20817;-65
2023/10/16 04:48:06;;;;;;;15.45;9.38;;;;;;;;;;5041071;28;20085;-66
2023/10/16 05:00:56;;;;;;;13.88;9.55;;;;;;;;;;5075809;28;20028;-65
2023/10/16 05:03:35;;;;;;;12.85;9.40;;;;;;;;;;5087487;28;20058;-67
2023/10/16 05:06:05;;;;;;;15.60;9.98;;;;;;;;;;5041077;28;20126;-67
2023/10/16 05:08:34;;;;;;;16.63;9.98;;;;;;;;;;5094016;28;20044;-67
2023/10/16 05:13:42;;;;;;;15.90;9.43;;;;;;;;;;5087600;28;20035;-67
2023/10/16 05:19:02;;;;;;;14.68;9.63;;;;;;;;;;5093525;28;20193;-66
2023/10/16 05:22:02;;;;;;;14.35;10.48;;;;;;;;;;5093755;28;20111;-66
2023/10/16 06:14:09;;;;;;;18.25;10.38;;;;;;;;;;5094067;28;20039;-66
2023/10/16 06:16:34;;;;;;;16.05;11.32;;;;;;;;;;5091138;28;20085;-65
2023/10/16 06:19:07;;;;;;;15.38;10.45;;;;;;;;;;5092674;28;20036;-65
2023/10/16 06:21:32;;;;;;;15.55;11.48;;;;;;;;;;5063244;28;20028;-65
2023/10/16 06:23:57;;;;;;;14.73;10.60;;;;;;;;;;5079793;28;20047;-65
2023/10/16 06:26:27;;;;;;;16.48;11.07;;;;;;;;;;5087160;28;20031;-65
2023/10/16 06:28:52;;;;;;;15.30;11.15;;;;;;;;;;5093154;28;20077;-65
2023/10/16 06:31:24;;;;;;;17.30;12.20;;;;;;;;;;5091784;28;20064;-65
2023/10/16 06:33:53;;;;;;;17.30;12.02;;;;;;;;;;5092274;28;20036;-65
2023/10/16 06:36:19;;;;;;;17.98;11.80;;;;;;;;;;5092420;28;20462;-65
2023/10/16 06:38:45;;;;;;;18.38;12.75;;;;;;;;;;5043967;28;20020;-66
2023/10/16 06:41:15;;;;;;;18.77;12.45;;;;;;;;;;5048446;28;20140;-66
2023/10/16 06:43:40;;;;;;;21.15;12.90;;;;;;;;;;5040601;28;20035;-66
2023/10/16 06:46:09;;;;;;;20.75;14.45;;;;;;;;;;5037088;28;20029;-66
2023/10/16 06:48:37;;;;;;;20.48;13.23;;;;;;;;;;5037145;28;20026;-66
2023/10/16 06:51:04;;;;;;;23.02;15.30;;;;;;;;;;5048348;28;20082;-66
2023/10/16 06:53:30;;;;;;;29.90;17.20;;;;;;;;;;5084064;28;20023;-66
2023/10/16 06:55:55;;;;;;;18.80;13.32;;;;;;;;;;5047040;28;20028;-66
2023/10/16 06:58:21;;;;;;;19.88;13.00;;;;;;;;;;5035590;28;20055;-66
2023/10/16 07:00:47;;;;;;;17.80;12.20;;;;;;;;;;5054470;28;20027;-66
2023/10/16 07:03:13;;;;;;;25.30;15.57;;;;;;;;;;5087544;28;20459;-66
2023/10/16 07:05:44;;;;;;;23.20;13.70;;;;;;;;;;5036366;28;20060;-66
2023/10/16 07:08:19;;;;;;;19.15;13.00;;;;;;;;;;5065532;28;20469;-67
2023/10/16 07:10:49;;;;;;;24.50;13.95;;;;;;;;;;5086592;28;20039;-66
2023/10/16 07:13:26;;;;;;;21.48;14.45;;;;;;;;;;5092021;28;20028;-66
2023/10/16 07:15:56;;;;;;;22.48;14.25;;;;;;;;;;5091514;28;20067;-66
2023/10/16 07:18:24;;;;;;;20.90;14.18;;;;;;;;;;5082977;28;20036;-66
2023/10/16 07:20:59;;;;;;;23.90;16.23;;;;;;;;;;5041841;28;20028;-66
2023/10/16 07:23:24;;;;;;;22.80;14.50;;;;;;;;;;5058357;28;20020;-66
2023/10/16 07:25:54;;;;;;;23.90;15.93;;;;;;;;;;5045422;28;20035;-66
2023/10/16 07:28:20;;;;;;;20.75;16.00;;;;;;;;;;5055840;28;20106;-66
2023/10/16 07:30:45;;;;;;;21.10;15.60;;;;;;;;;;5056367;28;20044;-64
2023/10/16 07:33:17;;;;;;;20.63;14.27;;;;;;;;;;5053186;28;20065;-65
2023/10/16 07:35:46;;;;;;;25.30;15.82;;;;;;;;;;5044981;28;20354;-66
2023/10/16 07:38:12;;;;;;;23.90;16.40;;;;;;;;;;5045913;28;20024;-67
2023/10/16 07:40:37;;;;;;;23.55;15.98;;;;;;;;;;5043510;28;20119;-67
2023/10/16 07:43:03;;;;;;;22.73;16.73;;;;;;;;;;5042131;28;20131;-65
2023/10/16 07:45:32;;;;;;;28.60;17.05;;;;;;;;;;5052898;28;20081;-65
2023/10/16 07:48:07;;;;;;;22.00;16.13;;;;;;;;;;5046537;28;20037;-66
2023/10/16 07:50:32;;;;;;;24.35;16.30;;;;;;;;;;5044551;28;20036;-66
2023/10/16 07:52:58;;;;;;;26.33;16.80;;;;;;;;;;5064888;28;20016;-66
2023/10/16 07:55:38;;;;;;;23.60;17.65;;;;;;;;;;5038147;28;20943;-66
2023/10/16 07:58:11;;;;;;;24.45;17.00;;;;;;;;;;5048843;28;20036;-66
2023/10/16 08:00:58;;;;;;;28.83;17.63;;;;;;;;;;5049235;28;20056;-66
2023/10/16 08:03:22;;;;;;;23.50;16.20;;;;;;;;;;5067370;28;20086;-66
2023/10/16 08:05:47;;;;;;;24.40;17.70;;;;;;;;;;5090968;28;20471;-66
2023/10/16 08:08:12;;;;;;;25.50;17.35;;;;;;;;;;5091529;28;20016;-66
2023/10/16 08:10:41;;;;;;;27.35;17.10;;;;;;;;;;5050909;28;20035;-66
2023/10/16 08:13:13;;;;;;;24.20;16.40;;;;;;;;;;5046971;28;20030;-65
2023/10/16 08:15:44;;;;;;;26.52;16.20;;;;;;;;;;5036676;28;20032;-65
2023/10/16 08:18:10;;;;;;;25.42;16.67;;;;;;;;;;5036535;28;20048;-65
2023/10/16 08:23:38;;;;;;;27.23;17.88;;;;;;;;;;5019191;28;20033;-66
2023/10/16 08:31:43;;;;;;;22.38;16.83;;;;;;;;;;5041069;28;20039;-66
2023/10/16 08:34:09;;;;;;;23.60;18.30;;;;;;;;;;5042415;28;20027;-66
2023/10/16 08:36:35;;;;;;;23.08;17.25;;;;;;;;;;5037788;28;20865;-66
2023/10/16 08:39:08;;;;;;;25.77;17.88;;;;;;;;;;5067494;28;20077;-66
2023/10/16 08:41:43;;;;;;;27.48;19.02;;;;;;;;;;5050208;28;20036;-66
2023/10/16 08:44:15;;;;;;;25.58;17.08;;;;;;;;;;5043405;28;20039;-65
2023/10/16 08:46:53;;;;;;;25.50;16.52;;;;;;;;;;5078209;28;20028;-65
2023/10/16 08:49:22;;;;;;;27.52;16.90;;;;;;;;;;5072632;28;20028;-66
2023/10/16 08:51:49;;;;;;;23.50;16.27;;;;;;;;;;5053093;28;20066;-66
2023/10/16 08:56:58;;;;;;;21.63;14.73;;;;;;;;;;5049266;28;20157;-65
2023/10/16 08:59:25;;;;;;;24.45;14.30;;;;;;;;;;5051509;28;20929;-65
2023/10/16 09:01:51;;;;;;;19.85;13.57;;;;;;;;;;5048007;28;20024;-65
2023/10/16 09:04:17;;;;;;;23.80;14.48;;;;;;;;;;5047405;28;20823;-65
2023/10/16 09:06:43;;;;;;;20.83;13.10;;;;;;;;;;5048846;28;20128;-65
2023/10/16 09:09:13;;;;;;;19.85;12.95;;;;;;;;;;5043048;28;20760;-65
2023/10/16 09:11:39;;;;;;;18.02;13.32;;;;;;;;;;5026371;28;20090;-65
2023/10/16 09:14:07;;;;;;;18.75;13.25;;;;;;;;;;5048915;28;20869;-65
2023/10/16 09:16:34;;;;;;;16.98;10.93;;;;;;;;;;5048660;28;20016;-65
2023/10/16 09:18:59;;;;;;;19.27;11.25;;;;;;;;;;5048790;28;20010;-65
2023/10/16 09:21:28;;;;;;;18.33;10.65;;;;;;;;;;5041133;28;20024;-65
2023/10/16 09:24:00;;;;;;;15.05;7.60;;;;;;;;;;5041181;28;20139;-65
2023/10/16 09:26:28;;;;;;;9.50;6.38;;;;;;;;;;5048475;28;20085;-66
2023/10/16 09:28:54;;;;;;;13.65;9.30;;;;;;;;;;5042045;28;20028;-65
2023/10/16 09:31:20;;;;;;;11.13;8.57;;;;;;;;;;5041073;28;20078;-66
2023/10/16 09:33:48;;;;;;;11.50;7.45;;;;;;;;;;5063257;28;20054;-67
2023/10/16 09:36:17;;;;;;;10.25;8.25;;;;;;;;;;5049609;28;20256;-67
2023/10/16 09:38:44;;;;;;;9.77;7.13;;;;;;;;;;5032888;28;20836;-67
2023/10/16 09:46:48;;;;;;;12.80;4.90;;;;;;;;;;5055860;28;20089;-66
2023/10/16 09:49:15;;;;;;;10.20;4.72;;;;;;;;;;5045885;28;20354;-65
2023/10/16 09:51:41;;;;;;;7.85;4.32;;;;;;;;;;5048129;28;20886;-66
2023/10/16 09:54:09;;;;;;;9.18;5.50;;;;;;;;;;5043184;28;20139;-66
2023/10/16 09:56:35;;;;;;;10.40;5.53;;;;;;;;;;5044496;28;20840;-65
2023/10/16 09:59:04;;;;;;;10.93;5.55;;;;;;;;;;5042531;28;20039;-65
2023/10/16 10:01:31;;;;;;;9.18;4.95;;;;;;;;;;5039372;28;20897;-65
2023/10/16 10:03:58;;;;;;;12.98;5.57;;;;;;;;;;5049667;28;20026;-65
2023/10/16 10:06:32;;;;;;;10.23;5.45;;;;;;;;;;5055882;28;20062;-66
2023/10/16 10:11:44;;;;;;;8.27;4.40;;;;;;;;;;5038053;28;19912;-65
2023/10/16 10:16:56;;;;;;;9.45;3.97;;;;;;;;;;5042830;28;20101;-66
2023/10/16 10:19:31;;;;;;;11.43;3.53;;;;;;;;;;5040573;28;20024;-66
2023/10/16 10:22:01;;;;;;;6.90;3.58;;;;;;;;;;5038238;28;20306;-65
2023/10/16 10:24:27;;;;;;;11.18;4.32;;;;;;;;;;5044044;28;20131;-66
2023/10/16 10:26:52;;;;;;;8.60;4.07;;;;;;;;;;5045793;28;20184;-65
2023/10/16 10:29:20;;;;;;;9.43;4.22;;;;;;;;;;5036978;28;20930;-66
2023/10/16 10:31:50;;;;;;;7.35;3.95;;;;;;;;;;5047107;28;20027;-66
2023/10/16 10:34:18;;;;;;;9.02;3.95;;;;;;;;;;5042947;28;20028;-65
2023/10/16 10:36:44;;;;;;;6.00;3.35;;;;;;;;;;5038890;28;20031;-66
2023/10/16 10:39:21;;;;;;;5.38;2.40;;;;;;;;;;5042713;28;20469;-65
2023/10/16 10:41:54;;;;;;;9.57;3.25;;;;;;;;;;5046764;28;20043;-66
2023/10/16 10:44:29;;;;;;;5.13;2.58;;;;;;;;;;5046932;28;20177;-65
2023/10/16 10:46:54;;;;;;;6.97;2.80;;;;;;;;;;5048506;28;20145;-66
2023/10/16 10:49:35;;;;;;;6.18;3.05;;;;;;;;;;5052861;28;20016;-65
2023/10/16 10:52:01;;;;;;;7.55;2.63;;;;;;;;;;5034952;28;20120;-65
2023/10/16 10:54:26;;;;;;;6.85;2.53;;;;;;;;;;5036802;28;20035;-65
2023/10/16 10:56:53;;;;;;;4.97;2.53;;;;;;;;;;5038999;28;20801;-66
2023/10/16 10:59:39;;;;;;;6.18;2.03;;;;;;;;;;5040246;28;20104;-66
2023/10/16 11:04:46;;;;;;;5.82;2.38;;;;;;;;;;5036636;28;20810;-66
2023/10/16 11:07:11;;;;;;;5.28;2.67;;;;;;;;;;5055743;28;20012;-66
2023/10/16 11:09:38;;;;;;;5.93;2.47;;;;;;;;;;5037554;28;20015;-66
2023/10/16 11:12:05;;;;;;;5.65;2.03;;;;;;;;;;5044808;28;20022;-66
2023/10/16 11:14:37;;;;;;;8.70;1.83;;;;;;;;;;5046988;28;20042;-66
2023/10/16 11:17:06;;;;;;;8.20;2.22;;;;;;;;;;5034764;28;20032;-66
2023/10/16 11:19:47;;;;;;;4.88;2.45;;;;;;;;;;5044994;28;20135;-66
2023/10/16 11:22:20;;;;;;;11.73;2.30;;;;;;;;;;5048717;28;20035;-67
2023/10/16 11:24:46;;;;;;;5.45;2.25;;;;;;;;;;5049179;28;20020;-65
2023/10/16 11:27:13;;;;;;;5.40;1.50;;;;;;;;;;5029948;28;20058;-65
2023/10/16 11:29:40;;;;;;;3.20;1.33;;;;;;;;;;5039682;28;20020;-65
2023/10/16 11:32:06;;;;;;;4.53;1.40;;;;;;;;;;5047851;28;20027;-65
2023/10/16 11:34:44;;;;;;;3.30;1.20;;;;;;;;;;5043942;28;20021;-65
2023/10/16 11:37:12;;;;;;;3.90;1.40;;;;;;;;;;5046462;28;20016;-65
2023/10/16 11:39:38;;;;;;;3.78;1.85;;;;;;;;;;5043868;28;20428;-65
2023/10/16 11:42:03;;;;;;;5.18;2.60;;;;;;;;;;5044783;28;20473;-65
2023/10/16 11:44:32;;;;;;;6.97;3.40;;;;;;;;;;5022164;28;20236;-63
2023/10/16 11:47:01;;;;;;;8.63;2.40;;;;;;;;;;5044146;28;20031;-65
2023/10/16 11:49:35;;;;;;;5.57;2.30;;;;;;;;;;5036895;28;20024;-65
2023/10/16 11:52:27;;;;;;;4.68;2.40;;;;;;;;;;5060702;28;20146;-65
2023/10/16 11:54:53;;;;;;;6.30;3.13;;;;;;;;;;5039006;28;20020;-65
2023/10/16 11:57:18;;;;;;;5.53;2.60;;;;;;;;;;5043113;28;20032;-65
2023/10/16 11:59:44;;;;;;;5.90;2.45;;;;;;;;;;5049312;28;20028;-65
2023/10/16 12:02:12;;;;;;;7.95;2.25;;;;;;;;;;5048543;28;20084;-65
2023/10/16 12:04:41;;;;;;;5.05;2.10;;;;;;;;;;5048517;28;20118;-65
2023/10/16 12:07:07;;;;;;;6.97;2.50;;;;;;;;;;5046732;28;20373;-65
2023/10/16 12:09:42;;;;;;;5.45;1.88;;;;;;;;;;5043867;28;20023;-65
2023/10/16 12:12:08;;;;;;;8.38;2.20;;;;;;;;;;5049776;28;20024;-65
2023/10/16 12:14:37;;;;;;;4.70;2.10;;;;;;;;;;5037157;28;20024;-65
2023/10/16 12:17:06;;;;;;;7.10;2.25;;;;;;;;;;5042067;28;20032;-67
2023/10/16 12:19:31;;;;;;;5.00;1.67;;;;;;;;;;5046249;28;20021;-66
2023/10/16 12:22:00;;;;;;;4.47;1.92;;;;;;;;;;5041285;28;20051;-65
2023/10/16 12:24:26;;;;;;;3.65;1.95;;;;;;;;;;5040727;28;20020;-65
2023/10/16 12:26:52;;;;;;;4.88;2.17;;;;;;;;;;5038527;28;20035;-65
2023/10/16 12:29:17;;;;;;;6.60;2.85;;;;;;;;;;5046477;28;20032;-65
2023/10/16 12:31:42;;;;;;;6.13;2.47;;;;;;;;;;5046268;28;20897;-65
2023/10/16 12:34:11;;;;;;;6.43;2.38;;;;;;;;;;5046844;28;20884;-65
2023/10/16 12:36:43;;;;;;;6.18;2.65;;;;;;;;;;5046349;28;20036;-66
2023/10/16 12:39:24;;;;;;;5.53;2.15;;;;;;;;;;5038313;28;20024;-66
2023/10/16 12:41:52;;;;;;;5.85;2.30;;;;;;;;;;5033876;28;20901;-66
2023/10/16 12:44:17;;;;;;;4.93;2.60;;;;;;;;;;5044272;28;20016;-66
2023/10/16 12:46:43;;;;;;;3.97;2.20;;;;;;;;;;5038363;28;20029;-66
2023/10/16 12:49:08;;;;;;;5.47;2.50;;;;;;;;;;5017141;28;20294;-66
2023/10/16 12:51:38;;;;;;;4.13;2.37;;;;;;;;;;5046664;28;20032;-66
2023/10/16 12:54:05;;;;;;;6.45;3.40;;;;;;;;;;5037678;28;20282;-66
2023/10/16 12:56:31;;;;;;;6.72;3.15;;;;;;;;;;5032295;28;20020;-66
2023/10/16 12:58:57;;;;;;;6.65;2.75;;;;;;;;;;5036115;28;20905;-66
2023/10/16 13:01:23;;;;;;;6.22;2.60;;;;;;;;;;5037095;28;20047;-66
2023/10/16 13:03:48;;;;;;;5.38;2.15;;;;;;;;;;5041014;28;20031;-68
2023/10/16 13:06:14;;;;;;;4.68;2.60;;;;;;;;;;5046044;28;20181;-68
2023/10/16 13:08:40;;;;;;;6.07;2.65;;;;;;;;;;5050092;28;20923;-68
2023/10/16 13:11:07;;;;;;;4.97;2.95;;;;;;;;;;5050123;28;20920;-68
2023/10/16 13:13:33;;;;;;;4.65;2.42;;;;;;;;;;5048324;28;20119;-68
2023/10/16 13:16:00;;;;;;;5.03;2.63;;;;;;;;;;5049220;28;20023;-67
2023/10/16 13:18:28;;;;;;;4.60;2.25;;;;;;;;;;5045186;28;20035;-68
2023/10/16 13:22:07;;;;;;;5.53;2.33;;;;;;;;;;5035947;28;20135;-66
2023/10/16 13:23:52;;;;;;;7.03;2.40;;;;;;;;;;5033176;28;20039;-68
2023/10/16 13:26:17;;;;;;;4.50;2.08;;;;;;;;;;5047933;28;20027;-68
2023/10/16 13:28:43;;;;;;;6.25;2.28;;;;;;;;;;5049860;28;20867;-63
2023/10/16 13:31:08;;;;;;;7.10;2.55;;;;;;;;;;5046573;28;20056;-64
2023/10/16 13:33:34;;;;;;;6.28;2.40;;;;;;;;;;5049251;28;20056;-65
2023/10/16 13:36:00;;;;;;;5.18;2.17;;;;;;;;;;5035898;28;20132;-66
2023/10/16 13:38:26;;;;;;;4.78;2.35;;;;;;;;;;5037641;28;20554;-66
2023/10/16 13:40:52;;;;;;;3.97;2.38;;;;;;;;;;5043107;28;20824;-66
2023/10/16 13:43:18;;;;;;;6.63;2.38;;;;;;;;;;5049388;28;20094;-66
2023/10/16 13:45:43;;;;;;;7.85;2.85;;;;;;;;;;5048047;28;21100;-66
2023/10/16 13:48:09;;;;;;;4.73;2.40;;;;;;;;;;5044867;28;20082;-65
2023/10/16 13:50:35;;;;;;;7.85;2.60;;;;;;;;;;5035354;28;20352;-65
2023/10/16 13:53:04;;;;;;;4.78;2.55;;;;;;;;;;5047492;28;20027;-65
2023/10/16 13:55:30;;;;;;;6.18;2.95;;;;;;;;;;5046447;28;20044;-65
2023/10/16 13:57:56;;;;;;;6.53;2.88;;;;;;;;;;5051722;28;20020;-65
2023/10/16 14:00:31;;;;;;;5.10;2.55;;;;;;;;;;5045443;28;20024;-65
2023/10/16 14:03:17;;;;;;;5.20;2.53;;;;;;;;;;5040409;28;20024;-65
2023/10/16 14:05:50;;;;;;;4.95;2.15;;;;;;;;;;5040794;28;20230;-66
2023/10/16 14:08:17;;;;;;;5.67;3.00;;;;;;;;;;5038679;28;20025;-67
2023/10/16 14:10:47;;;;;;;5.22;2.65;;;;;;;;;;5037620;28;21240;-64
2023/10/16 14:13:26;;;;;;;6.32;2.35;;;;;;;;;;5044467;28;20917;-65
2023/10/16 14:15:52;;;;;;;7.15;2.38;;;;;;;;;;5044223;28;20289;-67
2023/10/16 14:18:21;;;;;;;4.93;2.33;;;;;;;;;;5033975;28;20058;-66
2023/10/16 14:20:47;;;;;;;9.50;2.58;;;;;;;;;;5046541;28;20056;-66
2023/10/16 14:23:13;;;;;;;4.90;2.40;;;;;;;;;;5045941;28;20082;-66
2023/10/16 14:25:57;;;;;;;4.55;2.72;;;;;;;;;;5038060;28;20020;-66
2023/10/16 14:28:40;;;;;;;4.32;2.17;;;;;;;;;;5045873;28;20373;-66
2023/10/16 14:31:08;;;;;;;4.90;2.08;;;;;;;;;;5037382;28;20027;-67
2023/10/16 14:33:34;;;;;;;7.57;2.28;;;;;;;;;;5047485;28;20024;-66
2023/10/16 14:36:02;;;;;;;6.10;2.10;;;;;;;;;;5041928;28;20495;-66
2023/10/16 14:38:28;;;;;;;4.18;1.55;;;;;;;;;;5038413;28;20022;-66
2023/10/16 14:41:08;;;;;;;4.63;2.03;;;;;;;;;;5048506;28;20019;-66
2023/10/16 14:43:35;;;;;;;4.15;1.70;;;;;;;;;;5087773;28;20028;-66
2023/10/16 14:46:02;;;;;;;4.60;2.15;;;;;;;;;;5089607;28;20534;-62
2023/10/16 14:48:28;;;;;;;4.47;2.15;;;;;;;;;;5089180;28;20054;-64
2023/10/16 14:50:53;;;;;;;4.03;2.20;;;;;;;;;;5077421;28;20027;-65
2023/10/16 14:53:20;;;;;;;4.65;1.80;;;;;;;;;;5090624;28;20028;-65
2023/10/16 14:55:49;;;;;;;6.55;2.15;;;;;;;;;;5090803;28;20028;-65
2023/10/16 14:58:14;;;;;;;8.23;1.77;;;;;;;;;;5091210;28;20131;-65
2023/10/16 15:00:45;;;;;;;8.23;3.45;;;;;;;;;;5090950;28;20107;-64
2023/10/16 15:03:13;;;;;;;5.28;1.90;;;;;;;;;;5078761;28;20463;-65
2023/10/16 15:05:39;;;;;;;4.60;2.10;;;;;;;;;;5090557;28;20061;-65
2023/10/16 15:08:05;;;;;;;6.07;2.85;;;;;;;;;;5090877;28;20024;-65
2023/10/16 15:10:32;;;;;;;7.60;2.33;;;;;;;;;;5079952;28;20123;-65
2023/10/16 15:12:58;;;;;;;5.00;2.75;;;;;;;;;;5083786;28;20077;-65
2023/10/16 15:15:23;;;;;;;4.23;2.53;;;;;;;;;;5087866;28;20032;-64
2023/10/16 15:17:48;;;;;;;4.53;2.35;;;;;;;;;;5061595;28;20277;-64
2023/10/16 15:20:14;;;;;;;6.20;2.90;;;;;;;;;;5039796;28;20097;-64
2023/10/16 15:22:44;;;;;;;6.97;4.63;;;;;;;;;;5046454;28;20118;-64
2023/10/16 15:25:12;;;;;;;7.78;5.45;;;;;;;;;;5048530;28;20024;-64
2023/10/16 15:27:38;;;;;;;4.38;2.42;;;;;;;;;;5035560;28;20110;-64
2023/10/16 15:30:06;;;;;;;5.20;1.90;;;;;;;;;;5045618;28;20016;-64
2023/10/16 15:32:31;;;;;;;5.85;2.13;;;;;;;;;;5045617;28;20087;-64
2023/10/16 15:34:56;;;;;;;4.20;1.88;;;;;;;;;;5045971;28;20856;-64
2023/10/16 15:37:22;;;;;;;4.28;2.35;;;;;;;;;;5045894;28;20067;-64
2023/10/16 15:39:50;;;;;;;4.57;2.25;;;;;;;;;;5048059;28;20058;-64
2023/10/16 15:42:16;;;;;;;13.88;6.30;;;;;;;;;;5039290;28;20029;-63
2023/10/16 15:44:41;;;;;;;5.28;2.40;;;;;;;;;;5049726;28;20120;-62
2023/10/16 15:47:07;;;;;;;20.10;13.80;;;;;;;;;;5042527;28;20056;-67
2023/10/16 15:49:32;;;;;;;59.90;39.90;;;;;;;;;;5039348;28;20105;-67
2023/10/16 15:51:57;;;;;;;9.60;3.50;;;;;;;;;;5038247;28;20601;-62
2023/10/16 15:54:22;;;;;;;7.03;2.53;;;;;;;;;;5039583;28;20134;-67
2023/10/16 15:56:48;;;;;;;6.03;3.80;;;;;;;;;;5044364;28;20273;-67
2023/10/16 15:59:13;;;;;;;8.00;1.60;;;;;;;;;;5047035;28;20273;-64
2023/10/16 16:01:39;;;;;;;8.20;4.93;;;;;;;;;;5032452;28;20020;-64
2023/10/16 16:04:05;;;;;;;5.35;1.80;;;;;;;;;;5047699;28;20020;-63
2023/10/16 16:06:32;;;;;;;3.88;1.63;;;;;;;;;;5046690;28;20876;-65
2023/10/16 16:08:59;;;;;;;4.13;1.73;;;;;;;;;;5033869;28;20572;-64
2023/10/16 16:11:27;;;;;;;4.13;1.50;;;;;;;;;;5031940;28;20025;-64
2023/10/16 16:13:52;;;;;;;4.53;1.55;;;;;;;;;;5043338;28;20891;-65
2023/10/16 16:16:20;;;;;;;6.05;1.48;;;;;;;;;;5046930;28;20024;-63
2023/10/16 16:18:45;;;;;;;6.68;1.65;;;;;;;;;;5046989;28;20634;-64
2023/10/16 16:21:13;;;;;;;4.82;1.50;;;;;;;;;;5047125;28;20036;-63
2023/10/16 16:23:39;;;;;;;4.45;1.33;;;;;;;;;;5050241;28;20024;-66
2023/10/16 16:26:04;;;;;;;2.67;1.15;;;;;;;;;;5051374;28;20024;-64
2023/10/16 16:28:30;;;;;;;4.18;1.45;;;;;;;;;;5038789;28;20143;-64
2023/10/16 16:30:57;;;;;;;4.35;2.45;;;;;;;;;;5051252;28;20039;-67
2023/10/16 16:33:22;;;;;;;6.78;2.45;;;;;;;;;;5050508;28;20016;-65
2023/10/16 16:35:48;;;;;;;4.63;1.73;;;;;;;;;;5044575;28;20012;-65
2023/10/16 16:38:13;;;;;;;5.10;1.60;;;;;;;;;;5042344;28;20087;-65
2023/10/16 16:40:38;;;;;;;4.40;1.80;;;;;;;;;;5045439;28;20051;-66